Time,TemperatureF,DewpointF,PressureIn,WindDirection,WindDirectionDegrees,WindSpeedMPH,WindSpeedGustMPH,Humidity,HourlyPrecipIn,Conditions,Clouds,dailyrainin,SolarRadiationWatts/m^2,SoftwareType,DateUTC
2013-03-12 00:01:00,61.0,60.0,-100.00,West,270,3.0,4.0,96,0.00,,,0.15,0.000000,,2013-03-12 10:01:00,
2013-03-12 00:33:00,61.0,60.0,-100.00,West,270,3.0,4.0,96,0.00,,,0.15,0.000000,,2013-03-12 10:33:00,
2013-03-12 00:42:00,61.0,60.0,-100.00,West,270,3.0,4.0,96,0.00,,,0.15,0.000000,,2013-03-12 10:42:00,
2013-03-12 00:52:00,61.0,60.0,-100.00,West,270,3.0,4.0,96,0.00,,,0.15,0.000000,,2013-03-12 10:52:00,
2013-03-12 01:01:00,61.0,60.0,-100.00,NW,319,3.0,7.0,96,0.01,,,0.16,0.000000,,2013-03-12 11:01:00,
2013-03-12 01:22:00,61.0,60.0,-100.00,NW,319,3.0,7.0,96,0.01,,,0.16,0.000000,,2013-03-12 11:22:00,
2013-03-12 01:32:00,61.0,60.0,-100.00,NW,319,3.0,7.0,96,0.01,,,0.16,0.000000,,2013-03-12 11:32:00,
2013-03-12 01:42:00,61.0,60.0,-100.00,NW,319,3.0,7.0,96,0.01,,,0.16,0.000000,,2013-03-12 11:42:00,
2013-03-12 01:52:00,61.0,60.0,-100.00,NW,319,3.0,7.0,96,0.01,,,0.16,0.000000,,2013-03-12 11:52:00,
2013-03-12 02:01:00,61.0,60.0,-100.00,SSW,206,3.0,7.0,96,0.00,,,0.16,0.000000,,2013-03-12 12:01:00,
2013-03-12 02:32:00,61.0,60.0,-100.00,SSW,206,3.0,7.0,96,0.00,,,0.16,0.000000,,2013-03-12 12:32:00,
2013-03-12 02:42:00,61.0,60.0,-100.00,SSW,206,3.0,7.0,96,0.00,,,0.16,0.000000,,2013-03-12 12:42:00,
2013-03-12 02:52:00,61.0,60.0,-100.00,SSW,206,3.0,7.0,96,0.00,,,0.16,0.000000,,2013-03-12 12:52:00,
2013-03-12 03:01:00,61.0,60.0,-100.00,NNW,337,3.0,7.0,95,0.00,,,0.16,0.000000,,2013-03-12 13:01:00,
2013-03-12 03:33:00,61.0,60.0,-100.00,NNW,337,3.0,7.0,95,0.00,,,0.16,0.000000,,2013-03-12 13:33:00,
2013-03-12 03:43:00,61.0,60.0,-100.00,NNW,337,3.0,7.0,95,0.00,,,0.16,0.000000,,2013-03-12 13:43:00,
2013-03-12 03:52:00,61.0,60.0,-100.00,NNW,337,3.0,7.0,95,0.00,,,0.16,0.000000,,2013-03-12 13:52:00,
2013-03-12 04:01:00,62.0,60.0,-100.00,NNW,331,1.0,4.0,93,0.00,,,0.16,0.000000,,2013-03-12 14:01:00,
2013-03-12 04:33:00,62.0,60.0,-100.00,NNW,331,1.0,4.0,93,0.00,,,0.16,0.000000,,2013-03-12 14:33:00,
2013-03-12 04:42:00,62.0,60.0,-100.00,NNW,331,1.0,4.0,93,0.00,,,0.16,0.000000,,2013-03-12 14:42:00,
2013-03-12 04:53:00,62.0,60.0,-100.00,NNW,331,1.0,4.0,93,0.00,,,0.16,0.000000,,2013-03-12 14:53:00,
2013-03-12 05:01:00,61.0,59.0,-100.00,NNE,16,0.0,5.0,92,0.00,,,0.16,0.000000,,2013-03-12 15:01:00,
2013-03-12 05:32:00,61.0,59.0,-100.00,NNE,16,0.0,5.0,92,0.00,,,0.16,0.000000,,2013-03-12 15:32:00,
2013-03-12 05:42:00,61.0,59.0,-100.00,NNE,16,0.0,5.0,92,0.00,,,0.16,0.000000,,2013-03-12 15:42:00,
2013-03-12 05:53:00,61.0,59.0,-100.00,NNE,16,0.0,5.0,92,0.00,,,0.16,0.000000,,2013-03-12 15:53:00,
2013-03-12 06:01:00,61.0,60.0,-100.00,NNE,20,2.0,4.0,96,0.00,,,0.16,0.000000,,2013-03-12 16:01:00,
2013-03-12 06:33:00,61.0,60.0,-100.00,NNE,20,2.0,4.0,96,0.00,,,0.16,0.000000,,2013-03-12 16:33:00,
2013-03-12 06:43:00,61.0,60.0,-100.00,NNE,20,2.0,4.0,96,0.00,,,0.16,0.000000,,2013-03-12 16:43:00,
2013-03-12 06:52:00,61.0,60.0,-100.00,NNE,20,2.0,4.0,96,0.00,,,0.16,0.000000,,2013-03-12 16:52:00,
2013-03-12 07:01:00,61.0,59.0,-100.00,North,355,2.0,7.0,94,0.00,,,0.16,2.000000,,2013-03-12 17:01:00,
2013-03-12 07:34:00,61.0,59.0,-100.00,North,355,2.0,7.0,94,0.00,,,0.16,2.000000,,2013-03-12 17:34:00,
2013-03-12 07:44:00,61.0,59.0,-100.00,North,355,2.0,7.0,94,0.00,,,0.16,2.000000,,2013-03-12 17:44:00,
2013-03-12 07:53:00,61.0,59.0,-100.00,North,355,2.0,7.0,94,0.00,,,0.16,2.000000,,2013-03-12 17:53:00,
2013-03-12 08:01:00,62.0,61.0,-100.00,SSW,212,2.0,6.0,97,0.00,,,0.16,33.000000,,2013-03-12 18:01:00,
2013-03-12 08:33:00,62.0,61.0,-100.00,SSW,212,2.0,6.0,97,0.00,,,0.16,33.000000,,2013-03-12 18:33:00,
2013-03-12 08:43:00,62.0,61.0,-100.00,SSW,212,2.0,6.0,97,0.00,,,0.16,33.000000,,2013-03-12 18:43:00,
2013-03-12 08:53:00,62.0,61.0,-100.00,SSW,212,2.0,6.0,97,0.00,,,0.16,33.000000,,2013-03-12 18:53:00,
2013-03-12 09:01:00,65.0,63.0,-100.00,South,169,1.0,4.0,94,0.00,,,0.16,127.000000,,2013-03-12 19:01:00,
2013-03-12 09:33:00,65.0,63.0,-100.00,South,169,1.0,4.0,94,0.00,,,0.16,127.000000,,2013-03-12 19:33:00,
2013-03-12 09:43:00,65.0,63.0,-100.00,South,169,1.0,4.0,94,0.00,,,0.16,127.000000,,2013-03-12 19:43:00,
2013-03-12 09:53:00,65.0,63.0,-100.00,South,169,1.0,4.0,94,0.00,,,0.16,127.000000,,2013-03-12 19:53:00,
2013-03-12 10:01:00,66.0,63.0,-100.00,SSE,166,5.0,8.0,89,0.00,,,0.16,209.000000,,2013-03-12 20:01:00,
2013-03-12 10:33:00,66.0,63.0,-100.00,SSE,166,5.0,8.0,89,0.00,,,0.16,209.000000,,2013-03-12 20:33:00,
2013-03-12 10:42:00,66.0,63.0,-100.00,SSE,166,5.0,8.0,89,0.00,,,0.16,209.000000,,2013-03-12 20:42:00,
2013-03-12 10:53:00,66.0,63.0,-100.00,SSE,166,5.0,8.0,89,0.00,,,0.16,209.000000,,2013-03-12 20:53:00,
2013-03-12 11:01:00,65.0,63.0,-100.00,SSE,164,3.0,9.0,93,0.00,,,0.16,156.000000,,2013-03-12 21:01:00,
2013-03-12 11:33:00,65.0,63.0,-100.00,SSE,164,3.0,9.0,93,0.00,,,0.16,156.000000,,2013-03-12 21:33:00,
2013-03-12 11:43:00,65.0,63.0,-100.00,SSE,164,3.0,9.0,93,0.00,,,0.16,156.000000,,2013-03-12 21:43:00,
2013-03-12 11:52:00,65.0,63.0,-100.00,SSE,164,3.0,9.0,93,0.00,,,0.16,156.000000,,2013-03-12 21:52:00,
2013-03-12 12:01:00,64.0,63.0,-100.00,SSE,147,6.0,10.0,95,0.00,,,0.16,175.000000,,2013-03-12 22:01:00,
2013-03-12 12:33:00,64.0,63.0,-100.00,SSE,147,6.0,10.0,95,0.00,,,0.16,175.000000,,2013-03-12 22:33:00,
2013-03-12 12:43:00,64.0,63.0,-100.00,SSE,147,6.0,10.0,95,0.00,,,0.16,175.000000,,2013-03-12 22:43:00,
2013-03-12 12:53:00,64.0,63.0,-100.00,SSE,147,6.0,10.0,95,0.00,,,0.16,175.000000,,2013-03-12 22:53:00,
2013-03-12 13:01:00,65.0,63.0,-100.00,SE,129,5.0,9.0,94,0.00,,,0.16,155.000000,,2013-03-12 23:01:00,
2013-03-12 13:34:00,65.0,63.0,-100.00,SE,129,5.0,9.0,94,0.00,,,0.16,155.000000,,2013-03-12 23:34:00,
2013-03-12 13:43:00,65.0,63.0,-100.00,SE,129,5.0,9.0,94,0.00,,,0.16,155.000000,,2013-03-12 23:43:00,
2013-03-12 13:52:00,65.0,63.0,-100.00,SE,129,5.0,9.0,94,0.00,,,0.16,155.000000,,2013-03-12 23:52:00,
2013-03-12 14:01:00,65.0,62.0,-100.00,ESE,123,6.0,10.0,91,0.00,,,0.16,214.000000,,2013-03-13 00:01:00,
2013-03-12 14:33:00,65.0,62.0,-100.00,ESE,123,6.0,10.0,91,0.00,,,0.16,214.000000,,2013-03-13 00:33:00,
2013-03-12 14:42:00,65.0,62.0,-100.00,ESE,123,6.0,10.0,91,0.00,,,0.16,214.000000,,2013-03-13 00:42:00,
2013-03-12 14:53:00,65.0,62.0,-100.00,ESE,123,6.0,10.0,91,0.00,,,0.16,214.000000,,2013-03-13 00:53:00,
2013-03-12 15:01:00,63.0,62.0,-100.00,ESE,120,6.0,13.0,97,0.00,,,0.16,119.000000,,2013-03-13 01:01:00,
2013-03-12 15:33:00,63.0,62.0,-100.00,ESE,120,6.0,13.0,97,0.00,,,0.16,119.000000,,2013-03-13 01:33:00,
2013-03-12 15:43:00,63.0,62.0,-100.00,ESE,120,6.0,13.0,97,0.00,,,0.16,119.000000,,2013-03-13 01:43:00,
2013-03-12 15:52:00,63.0,62.0,-100.00,ESE,120,6.0,13.0,97,0.00,,,0.16,119.000000,,2013-03-13 01:52:00,
2013-03-12 16:01:00,63.0,63.0,-100.00,ESE,109,4.0,13.0,99,0.07,,,0.23,66.000000,,2013-03-13 02:01:00,
2013-03-12 16:33:00,63.0,63.0,-100.00,ESE,109,4.0,13.0,99,0.07,,,0.23,66.000000,,2013-03-13 02:33:00,
2013-03-12 16:43:00,63.0,63.0,-100.00,ESE,109,4.0,13.0,99,0.07,,,0.23,66.000000,,2013-03-13 02:43:00,
2013-03-12 16:52:00,63.0,63.0,-100.00,ESE,109,4.0,13.0,99,0.07,,,0.23,66.000000,,2013-03-13 02:52:00,
2013-03-12 17:01:00,63.0,63.0,-100.00,SE,132,4.0,14.0,99,0.00,,,0.23,84.000000,,2013-03-13 03:01:00,
2013-03-12 17:32:00,63.0,63.0,-100.00,SE,132,4.0,14.0,99,0.00,,,0.23,84.000000,,2013-03-13 03:32:00,
2013-03-12 17:42:00,63.0,63.0,-100.00,SE,132,4.0,14.0,99,0.00,,,0.23,84.000000,,2013-03-13 03:42:00,
2013-03-12 17:52:00,63.0,63.0,-100.00,SE,132,4.0,14.0,99,0.00,,,0.23,84.000000,,2013-03-13 03:52:00,
2013-03-12 18:01:00,63.0,63.0,-100.00,East,100,5.0,12.0,99,0.01,,,0.24,15.000000,,2013-03-13 04:01:00,
2013-03-12 18:32:00,63.0,63.0,-100.00,East,100,5.0,12.0,99,0.01,,,0.24,15.000000,,2013-03-13 04:32:00,
2013-03-12 18:43:00,63.0,63.0,-100.00,East,100,5.0,12.0,99,0.01,,,0.24,15.000000,,2013-03-13 04:43:00,
2013-03-12 18:53:00,63.0,63.0,-100.00,East,100,5.0,12.0,99,0.01,,,0.24,15.000000,,2013-03-13 04:53:00,
2013-03-12 19:01:00,62.0,61.0,-100.00,NE,35,9.0,12.0,96,0.00,,,0.11,3.000000,,2013-03-13 05:01:00,
2013-03-12 19:32:00,62.0,61.0,-100.00,NE,35,9.0,12.0,96,0.00,,,0.11,3.000000,,2013-03-13 05:32:00,
2013-03-12 19:42:00,62.0,61.0,-100.00,NE,35,9.0,12.0,96,0.00,,,0.11,3.000000,,2013-03-13 05:42:00,
2013-03-12 19:52:00,62.0,61.0,-100.00,NE,35,9.0,12.0,96,0.00,,,0.11,3.000000,,2013-03-13 05:52:00,
2013-03-12 20:01:00,62.0,60.0,-100.00,NNE,30,9.0,14.0,93,0.00,,,0.09,0.000000,,2013-03-13 06:01:00,
2013-03-12 20:33:00,62.0,60.0,-100.00,NNE,30,9.0,14.0,93,0.00,,,0.09,0.000000,,2013-03-13 06:33:00,
2013-03-12 20:42:00,62.0,60.0,-100.00,NNE,30,9.0,14.0,93,0.00,,,0.09,0.000000,,2013-03-13 06:42:00,
2013-03-12 20:52:00,62.0,60.0,-100.00,NNE,30,9.0,14.0,93,0.00,,,0.09,0.000000,,2013-03-13 06:52:00,
2013-03-12 21:01:00,62.0,59.0,-100.00,NNE,27,7.0,11.0,91,0.00,,,0.09,0.000000,,2013-03-13 07:01:00,
2013-03-12 21:33:00,62.0,59.0,-100.00,NNE,27,7.0,11.0,91,0.00,,,0.09,0.000000,,2013-03-13 07:33:00,
2013-03-12 21:43:00,62.0,59.0,-100.00,NNE,27,7.0,11.0,91,0.00,,,0.09,0.000000,,2013-03-13 07:43:00,
2013-03-12 21:52:00,62.0,59.0,-100.00,NNE,27,7.0,11.0,91,0.00,,,0.09,0.000000,,2013-03-13 07:52:00,
2013-03-12 22:01:00,62.0,59.0,-100.00,NNE,27,8.0,12.0,91,0.00,,,0.09,0.000000,,2013-03-13 08:01:00,
2013-03-12 22:33:00,62.0,59.0,-100.00,NNE,27,8.0,12.0,91,0.00,,,0.09,0.000000,,2013-03-13 08:33:00,
2013-03-12 22:43:00,62.0,59.0,-100.00,NNE,27,8.0,12.0,91,0.00,,,0.09,0.000000,,2013-03-13 08:43:00,
2013-03-12 22:53:00,62.0,59.0,-100.00,NNE,27,8.0,12.0,91,0.00,,,0.09,0.000000,,2013-03-13 08:53:00,
2013-03-12 23:01:00,61.0,58.0,-100.00,NNE,26,5.0,13.0,91,0.00,,,0.09,0.000000,,2013-03-13 09:01:00,
2013-03-12 23:32:00,61.0,58.0,-100.00,NNE,26,5.0,13.0,91,0.00,,,0.09,0.000000,,2013-03-13 09:32:00,
2013-03-12 23:42:00,61.0,58.0,-100.00,NNE,26,5.0,13.0,91,0.00,,,0.09,0.000000,,2013-03-13 09:42:00,
2013-03-12 23:52:00,61.0,58.0,-100.00,NNE,26,5.0,13.0,91,0.00,,,0.09,0.000000,,2013-03-13 09:52:00,